createdAt,value
2023-02-19T00:02:56.038Z,79.45
2023-02-19T00:06:03.352Z,79.36
2023-02-19T00:12:21.056Z,79.49
2023-02-19T00:15:22.597Z,79.64
2023-02-19T00:18:24.276Z,79.41
2023-02-19T00:21:26.626Z,79.64
2023-02-19T00:24:29.114Z,80.31
2023-02-19T00:30:46.202Z,79.32
2023-02-19T00:34:02.316Z,79.58
2023-02-19T00:37:04.190Z,79.47
2023-02-19T00:40:11.871Z,79.49
2023-02-19T00:43:17.082Z,79.61
2023-02-19T00:46:35.505Z,79.94
2023-02-19T00:49:37.449Z,80.24
2023-02-19T00:52:39.366Z,80.38
2023-02-19T00:55:40.893Z,80.62
2023-02-19T00:58:42.463Z,80.35
2023-02-19T01:01:45.123Z,80.07
2023-02-19T01:04:46.823Z,80.25
2023-02-19T01:11:20.382Z,80.40
2023-02-19T01:14:24.273Z,80.58
2023-02-19T01:20:43.908Z,80.98
2023-02-19T01:23:45.482Z,80.94
2023-02-19T01:26:49.264Z,81.19
2023-02-19T01:29:50.912Z,81.02
2023-02-19T01:32:54.229Z,81.19
2023-02-19T01:39:12.325Z,80.54
2023-02-19T01:42:16.998Z,80.65
2023-02-19T01:45:31.078Z,80.44
2023-02-19T01:48:57.254Z,80.10
2023-02-19T01:52:00.827Z,80.10
2023-02-19T01:55:12.717Z,80.19
2023-02-19T01:58:15.739Z,80.61
2023-02-19T02:01:17.339Z,80.33
2023-02-19T02:04:19.173Z,80.84
2023-02-19T02:07:44.906Z,81.11
2023-02-19T02:10:46.517Z,81.22
2023-02-19T02:13:49.139Z,81.09
2023-02-19T02:17:04.373Z,80.89
2023-02-19T02:20:11.910Z,81.26
2023-02-19T02:23:16.054Z,80.88
2023-02-19T02:26:46.057Z,81.40
2023-02-19T02:33:50.257Z,85.31
2023-02-19T02:36:55.701Z,88.50
2023-02-19T02:40:02.823Z,90.81
2023-02-19T02:43:09.438Z,92.30
2023-02-19T02:46:12.847Z,95.79
2023-02-19T02:49:21.354Z,96.90
2023-02-19T02:52:44.775Z,98.54
2023-02-19T02:55:51.785Z,97.29
2023-02-19T02:58:59.048Z,97.29
2023-02-19T03:02:10.884Z,98.87
2023-02-19T03:05:44.193Z,98.59
2023-02-19T03:09:04.317Z,97.61
2023-02-19T03:12:35.061Z,96.86
2023-02-19T03:16:02.669Z,95.12
2023-02-19T03:19:27.890Z,95.24
2023-02-19T03:22:36.355Z,95.30
2023-02-19T03:26:01.132Z,93.24
2023-02-19T03:29:26.154Z,93.71
2023-02-19T03:32:53.903Z,93.96
2023-02-19T03:36:44.173Z,94.30
2023-02-19T03:39:48.194Z,93.80
2023-02-19T03:43:07.837Z,94.48
2023-02-19T03:46:32.051Z,94.61
2023-02-19T03:49:58.514Z,93.46
2023-02-19T03:53:19.164Z,94.62
2023-02-19T03:56:55.777Z,93.81
2023-02-19T04:00:05.789Z,94.60
2023-02-19T04:06:58.895Z,94.14
2023-02-19T04:10:07.608Z,94.12
2023-02-19T04:13:20.533Z,93.85
2023-02-19T04:16:26.629Z,94.48
2023-02-19T04:22:51.349Z,93.98
2023-02-19T04:25:57.769Z,94.00
2023-02-19T04:29:08.210Z,94.01
2023-02-19T04:32:15.894Z,93.44
2023-02-19T04:35:18.399Z,94.24
2023-02-19T04:38:22.281Z,94.66
2023-02-19T04:41:23.876Z,94.48
2023-02-19T04:44:32.700Z,95.23
2023-02-19T04:50:49.829Z,96.12
2023-02-19T04:53:51.494Z,96.78
2023-02-19T04:56:52.988Z,97.41
2023-02-19T04:59:54.551Z,97.98
2023-02-19T05:02:58.852Z,99.43
2023-02-19T05:06:09.863Z,100.00
2023-02-19T05:09:13.534Z,100.00
2023-02-19T05:12:15.480Z,100.00
2023-02-19T05:15:19.960Z,100.00
2023-02-19T05:18:21.679Z,100.00
2023-02-19T05:21:28.448Z,100.00
2023-02-19T05:24:55.516Z,100.00
2023-02-19T05:28:31.332Z,100.00
2023-02-19T05:32:00.436Z,100.00
2023-02-19T05:35:02.273Z,100.00
2023-02-19T05:38:08.243Z,100.00
2023-02-19T05:41:18.772Z,100.00
2023-02-19T05:44:22.855Z,100.00
2023-02-19T05:47:30.525Z,100.00
2023-02-19T05:50:34.466Z,100.00
2023-02-19T05:53:50.683Z,100.00
2023-02-19T05:56:52.302Z,100.00
2023-02-19T06:03:19.591Z,100.00
2023-02-19T06:06:21.662Z,100.00
2023-02-19T06:09:23.580Z,100.00
2023-02-19T06:12:25.285Z,100.00
2023-02-19T06:15:26.770Z,100.00
2023-02-19T06:18:28.312Z,100.00
2023-02-19T06:21:29.916Z,100.00
2023-02-19T06:24:40.313Z,100.00
2023-02-19T06:27:41.858Z,100.00
2023-02-19T06:30:46.500Z,100.00
2023-02-19T06:33:48.360Z,100.00
2023-02-19T06:36:50.229Z,100.00
2023-02-19T06:39:52.626Z,100.00
2023-02-19T06:42:54.214Z,100.00
2023-02-19T06:45:58.962Z,100.00
2023-02-19T06:49:04.990Z,100.00
2023-02-19T06:52:14.737Z,100.00
2023-02-19T06:55:16.383Z,100.00
2023-02-19T06:58:18.595Z,100.00
2023-02-19T07:01:24.063Z,100.00
2023-02-19T07:04:25.699Z,100.00
2023-02-19T07:07:27.296Z,100.00
2023-02-19T07:10:30.756Z,100.00
2023-02-19T07:13:38.241Z,100.00
2023-02-19T07:16:40.811Z,100.00
2023-02-19T07:19:51.755Z,100.00
2023-02-19T07:22:53.395Z,100.00
2023-02-19T07:25:54.902Z,100.00
2023-02-19T07:28:58.603Z,100.00
2023-02-19T07:32:18.676Z,100.00
2023-02-19T07:35:20.642Z,100.00
2023-02-19T07:38:26.575Z,100.00
2023-02-19T07:41:36.855Z,100.00
2023-02-19T07:44:38.384Z,100.00
2023-02-19T07:47:41.686Z,100.00
2023-02-19T07:50:53.901Z,100.00
2023-02-19T07:53:55.475Z,100.00
2023-02-19T07:57:03.354Z,99.99
2023-02-19T08:00:06.154Z,99.78
2023-02-19T08:03:19.510Z,99.90
2023-02-19T08:06:28.243Z,100.00
2023-02-19T08:09:33.698Z,100.00
2023-02-19T08:12:55.443Z,100.00
2023-02-19T08:16:21.762Z,100.00
2023-02-19T08:19:28.348Z,100.00
2023-02-19T08:22:32.795Z,99.68
2023-02-19T08:25:35.254Z,98.82
2023-02-19T08:28:36.979Z,97.10
2023-02-19T08:31:38.893Z,97.56
2023-02-19T08:34:48.140Z,97.54
2023-02-19T08:38:02.232Z,97.21
2023-02-19T08:41:10.447Z,97.44
2023-02-19T08:44:12.178Z,98.55
2023-02-19T08:47:13.690Z,98.18
2023-02-19T08:50:15.228Z,98.69
2023-02-19T08:53:20.727Z,99.25
2023-02-19T08:56:24.976Z,97.60
2023-02-19T08:59:29.242Z,97.10
2023-02-19T09:02:31.355Z,97.38
2023-02-19T09:05:40.305Z,97.35
2023-02-19T09:08:47.917Z,97.84
2023-02-19T09:11:55.541Z,97.53
2023-02-19T09:15:00.811Z,98.00
2023-02-19T09:18:09.823Z,100.00
2023-02-19T09:21:18.738Z,100.00
2023-02-19T09:24:22.828Z,99.21
2023-02-19T09:27:27.905Z,99.61
2023-02-19T09:30:32.659Z,98.57
2023-02-19T09:33:34.302Z,98.28
2023-02-19T09:36:42.127Z,98.34
2023-02-19T09:39:43.629Z,99.06
2023-02-19T09:42:47.522Z,98.27
2023-02-19T09:45:57.025Z,97.94
2023-02-19T09:49:21.192Z,97.63
2023-02-19T09:52:50.527Z,98.01
2023-02-19T09:55:53.425Z,95.80
2023-02-19T09:58:57.971Z,95.42
2023-02-19T10:02:16.831Z,94.98
2023-02-19T10:05:34.486Z,95.40
2023-02-19T10:08:37.947Z,95.25
2023-02-19T10:11:47.638Z,95.63
2023-02-19T10:14:52.865Z,93.36
2023-02-19T10:17:54.691Z,92.09
2023-02-19T10:21:28.049Z,92.39
2023-02-19T10:24:39.490Z,92.63
2023-02-19T10:27:42.743Z,93.29
2023-02-19T10:30:53.177Z,93.47
2023-02-19T10:33:59.577Z,93.08
2023-02-19T10:37:06.843Z,93.59
2023-02-19T10:40:46.127Z,93.62
2023-02-19T10:43:53.345Z,95.07
2023-02-19T10:46:59.183Z,92.73
2023-02-19T10:50:04.013Z,93.69
2023-02-19T10:53:23.414Z,93.25
2023-02-19T10:56:31.240Z,92.69
2023-02-19T10:59:32.908Z,90.37
2023-02-19T11:02:46.897Z,90.11
2023-02-19T11:05:59.345Z,88.65
2023-02-19T11:09:03.560Z,87.33
2023-02-19T11:12:10.555Z,87.01
2023-02-19T11:15:27.401Z,86.21
2023-02-19T11:18:35.242Z,86.32
2023-02-19T11:21:49.546Z,86.36
2023-02-19T11:24:55.880Z,87.20
2023-02-19T11:28:20.655Z,87.92
2023-02-19T11:31:32.096Z,88.21
2023-02-19T11:34:35.057Z,87.43
2023-02-19T11:37:36.658Z,87.81
2023-02-19T11:40:45.605Z,88.12
2023-02-19T11:44:01.093Z,87.92
2023-02-19T11:47:41.335Z,89.56
2023-02-19T11:50:55.175Z,90.38
2023-02-19T11:58:29.724Z,90.10
2023-02-19T12:02:23.118Z,90.41
2023-02-19T12:05:47.503Z,89.95
2023-02-19T12:09:14.876Z,89.89
2023-02-19T12:12:20.910Z,89.86
2023-02-19T12:15:41.325Z,90.13
2023-02-19T12:19:16.887Z,88.78
2023-02-19T12:22:41.767Z,87.72
2023-02-19T12:25:49.576Z,88.39
2023-02-19T12:29:11.936Z,87.96
2023-02-19T12:32:43.044Z,87.80
2023-02-19T12:36:12.454Z,87.08
2023-02-19T12:39:53.623Z,86.67
2023-02-19T12:43:32.287Z,86.80
2023-02-19T12:46:40.147Z,86.25
2023-02-19T12:49:50.291Z,85.16
2023-02-19T12:52:58.308Z,85.17
2023-02-19T12:56:09.383Z,83.45
2023-02-19T12:59:39.593Z,84.66
2023-02-19T13:02:56.374Z,83.09
2023-02-19T13:06:09.175Z,82.96
2023-02-19T13:09:55.234Z,82.46
2023-02-19T13:13:02.217Z,79.37
2023-02-19T13:16:18.486Z,80.41
2023-02-19T13:19:20.378Z,78.64
2023-02-19T13:23:19.896Z,76.62
2023-02-19T13:27:04.736Z,75.92
2023-02-19T13:30:34.359Z,75.33
2023-02-19T13:34:10.174Z,74.54
2023-02-19T13:37:12.379Z,73.20
2023-02-19T13:40:35.732Z,73.79
2023-02-19T13:44:04.730Z,74.10
2023-02-19T13:47:46.954Z,74.02
2023-02-19T13:50:51.866Z,74.22
2023-02-19T13:54:14.872Z,74.13
2023-02-19T13:57:22.582Z,75.38
2023-02-19T14:00:50.567Z,75.53
2023-02-19T14:04:21.360Z,76.02
2023-02-19T14:07:38.142Z,76.79
2023-02-19T14:10:55.196Z,76.40
2023-02-19T14:14:01.649Z,75.97
2023-02-19T14:17:23.361Z,76.64
2023-02-19T14:20:45.068Z,76.88
2023-02-19T14:23:55.932Z,76.60
2023-02-19T14:27:00.770Z,76.58
2023-02-19T14:30:04.030Z,76.88
2023-02-19T14:33:11.382Z,76.18
2023-02-19T14:36:32.142Z,76.45
2023-02-19T14:39:40.289Z,77.15
2023-02-19T14:42:42.357Z,76.98
2023-02-19T14:46:26.839Z,77.03
2023-02-19T14:49:42.510Z,76.55
2023-02-19T14:52:53.549Z,76.99
2023-02-19T14:55:56.716Z,76.93
2023-02-19T14:59:13.528Z,77.34
2023-02-19T15:02:21.097Z,77.30
2023-02-19T15:05:47.382Z,77.00
2023-02-19T15:09:00.202Z,76.65
2023-02-19T15:12:02.933Z,77.93
2023-02-19T15:15:06.941Z,78.31
2023-02-19T15:18:23.853Z,77.18
2023-02-19T15:21:29.445Z,77.30
2023-02-19T15:24:33.719Z,77.39
2023-02-19T15:27:35.489Z,76.59
2023-02-19T15:30:37.086Z,77.00
2023-02-19T15:33:40.820Z,76.64
2023-02-19T15:36:42.618Z,77.42
2023-02-19T15:39:47.234Z,77.16
2023-02-19T15:42:48.935Z,76.90
2023-02-19T15:45:54.817Z,77.15
2023-02-19T15:49:04.155Z,77.20
2023-02-19T15:52:19.421Z,77.23
2023-02-19T15:55:44.616Z,77.52
2023-02-19T15:58:55.162Z,76.76
2023-02-19T16:02:06.865Z,76.39
2023-02-19T16:05:15.546Z,76.89
2023-02-19T16:08:45.199Z,76.54
2023-02-19T16:11:54.200Z,76.30
2023-02-19T16:14:58.554Z,76.57
2023-02-19T16:18:00.687Z,76.92
2023-02-19T16:21:10.124Z,76.61
2023-02-19T16:24:16.912Z,77.33
2023-02-19T16:27:29.798Z,77.88
2023-02-19T16:30:34.092Z,77.28
2023-02-19T16:33:48.863Z,77.44
2023-02-19T16:36:50.540Z,78.19
2023-02-19T16:40:27.885Z,77.40
2023-02-19T16:43:42.203Z,78.05
2023-02-19T16:46:54.801Z,77.95
2023-02-19T16:49:59.155Z,78.38
2023-02-19T16:53:07.853Z,78.49
2023-02-19T16:56:15.391Z,78.23
2023-02-19T16:59:16.951Z,78.54
2023-02-19T17:02:22.302Z,78.27
2023-02-19T17:05:27.489Z,78.09
2023-02-19T17:08:38.082Z,77.95
2023-02-19T17:11:39.760Z,78.28
2023-02-19T17:14:48.994Z,78.43
2023-02-19T17:17:52.834Z,78.59
2023-02-19T17:21:27.300Z,78.72
2023-02-19T17:24:30.988Z,77.81
2023-02-19T17:27:33.416Z,78.57
2023-02-19T17:30:50.055Z,78.11
2023-02-19T17:33:52.084Z,78.13
2023-02-19T17:37:05.990Z,77.44
2023-02-19T17:40:33.398Z,77.66
2023-02-19T17:43:41.502Z,77.85
2023-02-19T17:46:48.909Z,77.85
2023-02-19T17:49:50.738Z,78.12
2023-02-19T17:52:52.567Z,78.51
2023-02-19T17:55:57.247Z,78.84
2023-02-19T17:58:59.645Z,79.15
2023-02-19T18:02:06.533Z,79.55
2023-02-19T18:05:12.010Z,80.96
2023-02-19T18:08:16.838Z,81.44
2023-02-19T18:11:19.376Z,81.96
2023-02-19T18:14:31.184Z,83.64
2023-02-19T18:17:35.348Z,83.67
2023-02-19T18:27:10.761Z,83.09
2023-02-19T18:30:16.675Z,83.12
2023-02-19T18:33:18.419Z,83.46
2023-02-19T18:36:19.995Z,83.19
2023-02-19T18:39:22.659Z,82.53
2023-02-19T18:42:38.541Z,82.69
2023-02-19T18:48:57.955Z,83.19
2023-02-19T18:52:03.868Z,83.61
2023-02-19T18:55:05.735Z,83.02
2023-02-19T18:58:07.623Z,82.62
2023-02-19T19:01:11.797Z,83.65
2023-02-19T19:04:17.843Z,83.55
2023-02-19T19:07:20.115Z,82.87
2023-02-19T19:10:25.426Z,82.65
2023-02-19T19:13:41.513Z,82.59
2023-02-19T19:16:44.408Z,83.35
2023-02-19T19:19:45.913Z,84.03
2023-02-19T19:22:53.975Z,84.15
2023-02-19T19:26:05.985Z,86.12
2023-02-19T19:29:16.902Z,87.15
2023-02-19T19:32:21.650Z,86.68
2023-02-19T19:35:25.637Z,86.04
2023-02-19T19:41:43.612Z,83.76
2023-02-19T19:44:50.312Z,83.51
2023-02-19T19:47:52.892Z,84.55
2023-02-19T19:50:58.754Z,84.36
2023-02-19T19:54:03.178Z,83.32
2023-02-19T19:57:07.290Z,83.43
2023-02-19T20:00:13.733Z,83.44
2023-02-19T20:03:15.290Z,83.52
2023-02-19T20:06:37.169Z,83.12
2023-02-19T20:09:41.017Z,83.61
2023-02-19T20:16:06.225Z,83.55
2023-02-19T20:19:11.729Z,83.95
2023-02-19T20:22:19.581Z,83.72
2023-02-19T20:25:22.494Z,82.80
2023-02-19T20:28:27.079Z,82.46
2023-02-19T20:31:35.972Z,81.45
2023-02-19T20:34:38.278Z,81.71
2023-02-19T20:37:40.726Z,82.10
2023-02-19T20:40:49.617Z,81.33
2023-02-19T20:43:51.217Z,81.31
2023-02-19T20:46:57.104Z,80.97
2023-02-19T20:50:01.080Z,81.41
2023-02-19T20:53:10.014Z,80.65
2023-02-19T20:56:12.314Z,80.71
2023-02-19T20:59:22.750Z,81.33
2023-02-19T21:02:29.248Z,81.91
2023-02-19T21:05:33.064Z,80.78
2023-02-19T21:08:35.446Z,80.75
2023-02-19T21:11:37.005Z,80.64
2023-02-19T21:14:39.512Z,80.09
2023-02-19T21:17:46.137Z,80.68
2023-02-19T21:20:47.560Z,81.20
2023-02-19T21:23:50.422Z,80.85
2023-02-19T21:26:51.898Z,82.03
2023-02-19T21:29:53.566Z,82.75
2023-02-19T21:32:55.244Z,82.70
2023-02-19T21:35:57.599Z,83.04
2023-02-19T21:42:17.647Z,82.78
2023-02-19T21:45:19.214Z,82.59
2023-02-19T21:48:23.881Z,81.46
2023-02-19T21:51:55.198Z,81.90
2023-02-19T21:54:59.644Z,81.26
2023-02-19T21:58:01.233Z,81.34
2023-02-19T22:04:37.481Z,81.11
2023-02-19T22:07:42.842Z,81.01
2023-02-19T22:10:47.347Z,81.17
2023-02-19T22:13:50.342Z,81.09
2023-02-19T22:16:54.694Z,80.84
2023-02-19T22:23:18.258Z,80.64
2023-02-19T22:26:26.198Z,81.00
2023-02-19T22:29:27.830Z,81.29
2023-02-19T22:32:31.989Z,80.79
2023-02-19T22:35:33.653Z,81.01
2023-02-19T22:43:22.798Z,81.71
2023-02-19T22:46:26.926Z,81.58
2023-02-19T22:49:28.412Z,81.85
2023-02-19T22:52:29.954Z,81.68
2023-02-19T22:55:31.914Z,81.97
2023-02-19T22:58:33.392Z,82.26
2023-02-19T23:01:34.903Z,81.86
2023-02-19T23:04:36.515Z,82.00
2023-02-19T23:07:38.070Z,82.21
2023-02-19T23:10:40.920Z,82.24
2023-02-19T23:13:42.527Z,82.25
2023-02-19T23:16:44.104Z,82.22
2023-02-19T23:19:45.631Z,82.10
2023-02-19T23:22:47.266Z,81.70
2023-02-19T23:25:48.765Z,81.86
2023-02-19T23:28:50.664Z,81.65
2023-02-19T23:31:52.670Z,81.85
2023-02-19T23:34:54.297Z,81.51
2023-02-19T23:37:55.900Z,81.54
2023-02-19T23:40:57.549Z,81.91
2023-02-19T23:43:59.032Z,81.19
2023-02-19T23:47:00.546Z,81.76
2023-02-19T23:50:02.061Z,81.23
2023-02-19T23:53:04.107Z,81.52
2023-02-19T23:56:06.530Z,81.61
2023-02-19T23:59:15.295Z,81.95
